Time;durP1;ratioP1;P1;durP2;ratioP2;P2;SDS_P1;SDS_P2;PMS_P1;PMS_P2;Temp;Humidity;BMP_temperature;BMP_pressure;BME280_temperature;BME280_humidity;BME280_pressure;Samples;Min_cycle;Max_cycle;Signal;HPM_P1;HPM_P2
2023/10/13 00:02:04;;;;;;;4.40;3.10;;;10.80;99.90;;;;;;5052535;28;20401;-64
2023/10/13 00:04:33;;;;;;;3.23;2.90;;;10.80;99.90;;;;;;5052534;28;20449;-75
2023/10/13 00:07:02;;;;;;;4.57;3.27;;;10.80;99.90;;;;;;5056077;28;20424;-62
2023/10/13 00:09:37;;;;;;;7.97;3.40;;;10.80;99.90;;;;;;5056088;28;20895;-64
2023/10/13 00:12:10;;;;;;;5.00;4.20;;;10.90;99.90;;;;;;5056091;28;20417;-65
2023/10/13 00:14:37;;;;;;;5.93;2.80;;;10.90;99.90;;;;;;5053890;28;20498;-66
2023/10/13 00:17:05;;;;;;;5.13;2.93;;;10.90;99.90;;;;;;5055806;28;20921;-65
2023/10/13 00:19:44;;;;;;;4.57;3.30;;;10.90;99.90;;;;;;5056032;28;20401;-65
2023/10/13 00:22:10;;;;;;;6.10;4.40;;;11.00;99.90;;;;;;5055874;28;20375;-67
2023/10/13 00:24:47;;;;;;;2.83;2.57;;;11.00;99.90;;;;;;5054995;28;20420;-65
2023/10/13 00:30:16;;;;;;;9.13;2.83;;;11.00;99.90;;;;;;5055946;28;20872;-65
2023/10/13 00:32:56;;;;;;;9.83;3.30;;;11.00;99.90;;;;;;5055252;28;20376;-65
2023/10/13 00:35:26;;;;;;;3.07;2.87;;;11.00;99.90;;;;;;5054864;28;20865;-69
2023/10/13 00:37:55;;;;;;;9.10;3.00;;;11.00;99.90;;;;;;5055723;28;20920;-65
2023/10/13 00:40:55;;;;;;;11.03;3.30;;;11.00;99.90;;;;;;5055525;28;20878;-65
2023/10/13 00:45:43;;;;;;;6.43;3.83;;;11.00;99.90;;;;;;5034654;28;20380;-65
2023/10/13 00:48:13;;;;;;;9.93;3.40;;;11.10;99.90;;;;;;5035443;28;20377;-65
2023/10/13 00:50:40;;;;;;;5.20;3.57;;;11.10;99.90;;;;;;5035499;28;20439;-65
2023/10/13 00:53:07;;;;;;;9.73;3.30;;;11.20;99.90;;;;;;5034775;28;20377;-64
2023/10/13 00:55:34;;;;;;;8.50;3.20;;;11.10;99.90;;;;;;5033867;28;20503;-65
2023/10/13 00:58:03;;;;;;;9.77;3.03;;;11.20;99.90;;;;;;5035285;28;20443;-65
2023/10/13 01:00:32;;;;;;;10.27;3.33;;;11.20;99.90;;;;;;5035276;28;20883;-65
2023/10/13 01:03:06;;;;;;;8.23;4.50;;;11.30;99.90;;;;;;5035177;28;20403;-65
2023/10/13 01:05:33;;;;;;;17.60;3.83;;;11.30;99.90;;;;;;5034233;28;20447;-65
2023/10/13 01:08:03;;;;;;;5.90;3.43;;;11.30;99.90;;;;;;5035111;28;20431;-65
2023/10/13 01:10:32;;;;;;;9.73;4.07;;;11.30;99.90;;;;;;5041363;28;20429;-65
2023/10/13 01:12:59;;;;;;;7.83;4.13;;;11.30;99.90;;;;;;5054597;28;20486;-65
2023/10/13 01:15:33;;;;;;;8.10;4.20;;;11.30;99.90;;;;;;5053530;28;20455;-69
2023/10/13 01:18:13;;;;;;;12.30;4.17;;;11.40;99.90;;;;;;5052936;28;20912;-65
2023/10/13 01:20:46;;;;;;;4.43;3.77;;;11.30;99.90;;;;;;5051711;28;20434;-66
2023/10/13 01:23:19;;;;;;;5.90;3.53;;;11.40;99.90;;;;;;5035182;28;20836;-65
2023/10/13 01:25:45;;;;;;;10.20;3.63;;;11.40;99.90;;;;;;5038148;28;20475;-64
2023/10/13 01:28:16;;;;;;;4.87;3.63;;;11.40;99.90;;;;;;5052895;28;20429;-65
2023/10/13 01:30:51;;;;;;;9.27;3.50;;;11.40;99.90;;;;;;5053952;28;20402;-67
2023/10/13 01:33:27;;;;;;;10.40;3.90;;;11.50;99.90;;;;;;5034775;28;20898;-65
2023/10/13 01:35:55;;;;;;;12.97;4.00;;;11.50;99.90;;;;;;5033494;28;20893;-74
2023/10/13 01:38:20;;;;;;;5.00;3.30;;;11.60;99.90;;;;;;5034534;28;20465;-65
2023/10/13 01:40:51;;;;;;;5.50;3.47;;;11.60;99.90;;;;;;5034494;28;20377;-66
2023/10/13 01:43:17;;;;;;;9.00;3.90;;;11.60;99.90;;;;;;5033987;28;20521;-64
2023/10/13 01:45:47;;;;;;;6.20;3.80;;;11.60;99.90;;;;;;5033383;28;20402;-65
2023/10/13 01:48:16;;;;;;;4.03;3.47;;;11.60;99.90;;;;;;5034425;28;20465;-65
2023/10/13 01:50:47;;;;;;;6.80;3.53;;;11.60;99.90;;;;;;5033808;28;20411;-66
2023/10/13 01:53:17;;;;;;;7.07;4.07;;;11.60;99.90;;;;;;5034295;28;20734;-64
2023/10/13 01:55:43;;;;;;;5.00;3.03;;;11.50;99.90;;;;;;5033189;28;20376;-65
2023/10/13 01:58:17;;;;;;;9.40;3.93;;;11.60;99.90;;;;;;5051396;28;20425;-65
2023/10/13 02:00:43;;;;;;;7.00;3.73;;;11.60;99.90;;;;;;5054199;28;20384;-67
2023/10/13 02:03:17;;;;;;;9.60;4.03;;;11.60;99.90;;;;;;5053936;28;20376;-67
2023/10/13 02:05:47;;;;;;;3.60;3.30;;;11.60;99.90;;;;;;5052930;28;20453;-64
2023/10/13 02:08:17;;;;;;;4.63;3.60;;;11.60;99.90;;;;;;5053513;28;20909;-64
2023/10/13 02:10:44;;;;;;;6.07;4.70;;;11.60;99.90;;;;;;5053840;28;20480;-66
2023/10/13 02:13:17;;;;;;;5.67;3.60;;;11.60;99.90;;;;;;5048689;28;20576;-67
2023/10/13 02:15:48;;;;;;;4.60;4.20;;;11.50;99.90;;;;;;5032916;28;20430;-65
2023/10/13 02:18:26;;;;;;;4.37;3.53;;;11.50;99.90;;;;;;5033826;28;20892;-66
2023/10/13 02:20:56;;;;;;;9.10;4.03;;;11.50;99.90;;;;;;5033690;28;20375;-65
2023/10/13 02:23:29;;;;;;;8.00;4.30;;;11.50;99.90;;;;;;5033675;28;20369;-65
2023/10/13 02:26:03;;;;;;;8.07;3.80;;;11.50;99.90;;;;;;5032811;28;20392;-65
2023/10/13 02:28:33;;;;;;;6.00;4.00;;;11.60;1.00;;;;;;5042420;28;20428;-64
2023/10/13 02:31:06;;;;;;;6.60;4.07;;;11.60;1.00;;;;;;5053466;28;20452;-66
2023/10/13 02:33:33;;;;;;;7.87;3.50;;;11.60;1.00;;;;;;5053367;28;20401;-64
2023/10/13 02:36:05;;;;;;;10.70;3.77;;;11.60;1.00;;;;;;5052541;28;20492;-65
2023/10/13 02:41:05;;;;;;;5.40;3.90;;;11.60;1.00;;;;;;5053369;28;20405;-65
2023/10/13 02:43:37;;;;;;;7.03;4.17;;;11.60;1.00;;;;;;5052633;28;20454;-66
2023/10/13 02:46:04;;;;;;;6.63;3.93;;;11.60;1.00;;;;;;5032074;28;20434;-65
2023/10/13 02:48:39;;;;;;;6.97;4.37;;;11.60;1.00;;;;;;5033345;28;20453;-65
2023/10/13 02:51:15;;;;;;;4.70;4.20;;;11.60;1.00;;;;;;5032046;28;20475;-64
2023/10/13 02:53:42;;;;;;;7.87;4.43;;;11.60;1.00;;;;;;5033211;28;20376;-65
2023/10/13 02:56:07;;;;;;;7.03;5.07;;;11.70;1.00;;;;;;5032145;28;20422;-68
2023/10/13 02:58:39;;;;;;;6.47;4.80;;;11.70;1.00;;;;;;5033216;28;20385;-64
2023/10/13 03:01:16;;;;;;;6.93;5.30;;;11.70;1.00;;;;;;5033398;28;20180;-68
2023/10/13 03:03:54;;;;;;;15.90;5.87;;;11.70;1.00;;;;;;5032726;28;20430;-64
2023/10/13 03:06:24;;;;;;;8.97;6.10;;;11.80;1.00;;;;;;5031919;28;20485;-65
2023/10/13 03:08:51;;;;;;;11.00;6.17;;;11.80;1.00;;;;;;5032991;28;20385;-65
2023/10/13 03:11:22;;;;;;;14.17;8.23;;;11.80;1.00;;;;;;5032104;28;20389;-65
2023/10/13 03:13:51;;;;;;;12.00;7.77;;;11.80;1.00;;;;;;5032900;28;20403;-65
2023/10/13 03:16:19;;;;;;;16.83;7.90;;;11.80;1.00;;;;;;5031938;28;20434;-65
2023/10/13 03:18:56;;;;;;;22.77;9.20;;;11.90;1.00;;;;;;5032484;28;20465;-67
2023/10/13 03:21:29;;;;;;;17.50;9.10;;;11.90;1.30;;;;;;5032577;28;20857;-69
2023/10/13 03:24:04;;;;;;;28.53;10.60;;;11.90;16.00;;;;;;5032652;28;20463;-64
2023/10/13 03:26:34;;;;;;;19.33;9.83;;;11.90;34.00;;;;;;5031841;28;20457;-64
2023/10/13 03:29:03;;;;;;;30.57;11.50;;;11.90;61.30;;;;;;5032891;28;20930;-64
2023/10/13 03:31:29;;;;;;;21.63;11.13;;;11.90;83.40;;;;;;5032697;28;20447;-65
2023/10/13 03:33:59;;;;;;;23.40;10.70;;;12.00;94.80;;;;;;5033529;28;20513;-65
2023/10/13 03:39:11;;;;;;;23.10;10.20;;;12.00;99.90;;;;;;5054414;28;20439;-64
2023/10/13 03:41:38;;;;;;;25.13;10.07;;;12.00;99.90;;;;;;5056219;28;20397;-64
2023/10/13 03:44:09;;;;;;;25.23;10.20;;;12.00;99.90;;;;;;5056407;28;20733;-65
2023/10/13 03:46:37;;;;;;;26.20;9.73;;;12.00;99.90;;;;;;5055696;28;20443;-64
2023/10/13 03:49:06;;;;;;;21.80;10.33;;;12.00;99.90;;;;;;5056525;28;20404;-65
2023/10/13 03:51:32;;;;;;;17.67;9.90;;;12.10;99.90;;;;;;5055331;28;20421;-65
2023/10/13 03:53:58;;;;;;;23.83;11.17;;;12.10;99.90;;;;;;5056475;28;20400;-65
2023/10/13 03:56:27;;;;;;;22.60;9.40;;;12.10;99.90;;;;;;5054171;28;20415;-66
2023/10/13 03:59:09;;;;;;;20.07;9.67;;;12.10;99.90;;;;;;5055963;28;20476;-65
2023/10/13 04:17:15;;;;;;;21.53;9.63;;;12.30;99.90;;;;;;5035610;28;20495;-65
2023/10/13 04:23:16;;;;;;;21.23;9.33;;;12.30;99.90;;;;;;5042687;28;20444;-64
2023/10/13 04:25:38;;;;;;;20.20;10.03;;;12.30;99.90;;;;;;5054962;28;20425;-64
2023/10/13 04:30:53;;;;;;;18.43;9.43;;;12.30;99.90;;;;;;5055876;28;20398;-64
2023/10/13 04:41:57;;;;;;;18.87;9.70;;;12.40;99.90;;;;;;5055693;28;20906;-64
2023/10/13 04:49:49;;;;;;;11.10;7.30;;;12.50;99.90;;;;;;5055445;28;20394;-67
2023/10/13 04:55:16;;;;;;;18.03;8.00;;;12.60;99.90;;;;;;5054614;28;20922;-65
2023/10/13 04:57:52;;;;;;;13.87;7.47;;;12.60;99.90;;;;;;5053545;28;20423;-65
2023/10/13 05:03:17;;;;;;;13.57;8.00;;;12.70;99.90;;;;;;5050757;28;20429;-66
2023/10/13 06:28:40;;;;;;;17.20;12.00;;;13.80;1.00;;;;;;5053368;28;20413;-65
2023/10/13 06:31:07;;;;;;;17.10;11.53;;;13.90;1.00;;;;;;5053392;28;20397;-65
2023/10/13 06:33:35;;;;;;;20.57;13.17;;;13.90;1.00;;;;;;5053466;28;20502;-64
2023/10/13 06:36:09;;;;;;;25.83;14.70;;;14.00;1.00;;;;;;5052618;28;20774;-66
2023/10/13 06:38:38;;;;;;;25.03;14.53;;;14.00;1.00;;;;;;5034642;28;20441;-66
2023/10/13 06:41:05;;;;;;;18.93;13.50;;;14.00;1.00;;;;;;5033284;28;20399;-70
2023/10/13 06:43:43;;;;;;;27.80;15.97;;;14.10;1.00;;;;;;5035648;28;20914;-65
2023/10/13 06:46:14;;;;;;;20.77;15.20;;;14.10;1.00;;;;;;5052246;28;20425;-65
2023/10/13 06:48:41;;;;;;;24.73;15.40;;;14.10;1.00;;;;;;5053336;28;20769;-65
2023/10/13 06:51:22;;;;;;;24.60;15.40;;;14.20;1.00;;;;;;5049964;28;20425;-65
2023/10/13 06:53:49;;;;;;;28.40;16.20;;;14.30;1.00;;;;;;5053105;28;20456;-65
2023/10/13 06:56:27;;;;;;;35.37;16.87;;;14.40;1.00;;;;;;5052177;28;20748;-65
2023/10/13 06:58:59;;;;;;;32.93;17.57;;;14.40;1.00;;;;;;5052855;28;20444;-65
2023/10/13 07:01:26;;;;;;;29.50;17.53;;;14.50;1.00;;;;;;5052676;28;20825;-69
2023/10/13 07:04:00;;;;;;;41.67;19.50;;;14.50;1.00;;;;;;5051863;28;20428;-65
2023/10/13 07:06:27;;;;;;;32.37;17.97;;;14.60;1.00;;;;;;5033860;28;20512;-65
2023/10/13 07:08:52;;;;;;;31.03;19.60;;;14.70;1.00;;;;;;5032613;28;20895;-65
2023/10/13 07:11:33;;;;;;;35.90;19.27;;;14.70;1.00;;;;;;5052037;28;20444;-65
2023/10/13 07:14:11;;;;;;;34.33;20.90;;;14.80;1.00;;;;;;5052565;28;20171;-65
2023/10/13 07:16:46;;;;;;;30.57;16.80;;;14.90;1.00;;;;;;5051372;28;20908;-65
2023/10/13 07:19:17;;;;;;;30.47;19.50;;;14.90;1.00;;;;;;5052317;28;20461;-66
2023/10/13 07:21:45;;;;;;;37.43;17.23;;;15.00;1.00;;;;;;5049344;28;21121;-65
2023/10/13 07:24:15;;;;;;;27.87;17.33;;;15.00;1.00;;;;;;5051842;28;20429;-64
2023/10/13 07:26:46;;;;;;;28.93;17.90;;;15.10;1.00;;;;;;5051874;28;20480;-65
2023/10/13 07:29:14;;;;;;;31.67;18.50;;;15.10;1.00;;;;;;5052744;28;20410;-65
2023/10/13 07:31:41;;;;;;;28.13;17.70;;;15.20;1.00;;;;;;5052672;28;20405;-66
2023/10/13 07:34:20;;;;;;;28.63;17.57;;;15.20;1.00;;;;;;5052709;28;20496;-65
2023/10/13 07:36:46;;;;;;;27.20;16.77;;;15.20;1.00;;;;;;5049267;28;20467;-65
2023/10/13 07:39:21;;;;;;;25.40;15.80;;;15.30;1.00;;;;;;5052804;28;20397;-65
2023/10/13 07:41:54;;;;;;;30.97;17.20;;;15.40;1.00;;;;;;5052501;28;20167;-65
2023/10/13 07:44:28;;;;;;;27.00;17.43;;;15.40;1.00;;;;;;5052615;28;20397;-65
2023/10/13 07:46:58;;;;;;;25.20;15.43;;;15.50;1.00;;;;;;5051815;28;20551;-65
2023/10/13 07:49:30;;;;;;;24.47;15.17;;;15.50;1.00;;;;;;5052645;28;20397;-68
2023/10/13 07:52:03;;;;;;;22.57;16.20;;;15.50;1.00;;;;;;5036573;28;20433;-68
2023/10/13 07:54:29;;;;;;;23.87;15.90;;;15.50;1.00;;;;;;5032415;28;20759;-75
2023/10/13 07:56:55;;;;;;;20.33;14.87;;;15.60;1.00;;;;;;5030163;28;20448;-65
2023/10/13 07:59:24;;;;;;;27.40;15.40;;;15.60;1.00;;;;;;5032694;28;20616;-67
2023/10/13 08:04:36;;;;;;;23.10;14.50;;;15.70;1.00;;;;;;5029623;28;20431;-65
2023/10/13 08:07:12;;;;;;;23.57;14.33;;;15.80;1.00;;;;;;5038325;28;20497;-65
2023/10/13 08:09:41;;;;;;;20.57;13.40;;;15.80;1.00;;;;;;5052348;28;20416;-65
2023/10/13 08:12:11;;;;;;;25.33;15.03;;;15.90;1.00;;;;;;5052069;28;20932;-66
2023/10/13 08:14:40;;;;;;;18.37;14.07;;;15.90;1.00;;;;;;5051158;28;20433;-65
2023/10/13 08:17:14;;;;;;;19.93;14.70;;;15.90;1.00;;;;;;5052079;28;20421;-65
2023/10/13 08:19:41;;;;;;;16.93;14.10;;;15.90;1.00;;;;;;5052290;28;20409;-65
2023/10/13 08:22:23;;;;;;;19.73;13.47;;;15.90;1.00;;;;;;5043772;28;20430;-65
2023/10/13 08:27:34;;;;;;;17.97;13.97;;;16.00;1.00;;;;;;5036399;28;20456;-65
2023/10/13 08:45:20;;;;;;;18.97;14.03;;;16.20;1.00;;;;;;5052773;28;20396;-67
2023/10/13 08:48:12;;;;;;;17.40;12.80;;;16.20;1.00;;;;;;5035768;28;20472;-66
2023/10/13 09:01:48;;;;;;;14.67;12.60;;;16.20;1.00;;;;;;5053418;28;20447;-65
2023/10/13 09:07:00;;;;;;;15.20;9.83;;;16.20;1.00;;;;;;5054035;28;20496;-65
2023/10/13 09:09:41;;;;;;;10.00;8.00;;;16.20;1.00;;;;;;5055218;28;20402;-64
2023/10/13 09:12:19;;;;;;;15.80;8.17;;;16.30;1.00;;;;;;5051596;28;20437;-65
2023/10/13 09:14:58;;;;;;;8.37;7.50;;;16.20;1.00;;;;;;5053515;28;20440;-65
2023/10/13 09:17:35;;;;;;;9.30;7.53;;;16.30;1.00;;;;;;5055070;28;20424;-65
2023/10/13 09:25:38;;;;;;;5.80;5.23;;;16.30;1.00;;;;;;5054000;28;20409;-66
2023/10/13 09:28:14;;;;;;;6.67;5.97;;;16.30;1.00;;;;;;5054631;28;20556;-65
2023/10/13 09:30:48;;;;;;;6.97;5.13;;;16.30;1.00;;;;;;5053642;28;20416;-66
2023/10/13 09:33:20;;;;;;;5.37;4.80;;;16.30;1.00;;;;;;5054034;28;20436;-64
2023/10/13 09:35:50;;;;;;;5.33;4.83;;;16.30;1.00;;;;;;5054013;28;20433;-65
2023/10/13 09:38:18;;;;;;;6.03;5.40;;;16.30;1.00;;;;;;5048343;28;20933;-65
2023/10/13 09:40:50;;;;;;;5.23;4.73;;;16.30;1.00;;;;;;5053007;28;20429;-65
2023/10/13 09:43:20;;;;;;;5.20;4.73;;;16.40;1.00;;;;;;5053598;28;20421;-65
2023/10/13 09:48:45;;;;;;;5.90;5.30;;;16.40;1.00;;;;;;5056929;28;20900;-65
2023/10/13 09:51:13;;;;;;;6.40;4.60;;;16.40;1.00;;;;;;5054630;28;20543;-65
2023/10/13 09:53:44;;;;;;;4.73;4.33;;;16.30;1.00;;;;;;5040923;28;20457;-65
2023/10/13 09:56:23;;;;;;;5.80;4.83;;;16.30;1.00;;;;;;5044868;28;20456;-65
2023/10/13 09:59:00;;;;;;;5.33;4.50;;;16.30;1.00;;;;;;5054455;28;20535;-65
2023/10/13 10:01:31;;;;;;;4.30;4.00;;;16.30;1.00;;;;;;5054122;28;20388;-65
2023/10/13 10:04:16;;;;;;;5.93;4.17;;;16.30;1.00;;;;;;5054038;28;20393;-64
2023/10/13 10:06:54;;;;;;;5.30;4.60;;;16.40;1.00;;;;;;5051331;28;20462;-67
2023/10/13 10:09:34;;;;;;;5.10;4.60;;;16.40;1.00;;;;;;5054239;28;20401;-66
2023/10/13 10:12:03;;;;;;;4.90;4.50;;;16.50;1.00;;;;;;5054223;28;20912;-65
2023/10/13 10:14:44;;;;;;;7.10;5.60;;;16.50;1.00;;;;;;5054057;28;20485;-70
2023/10/13 10:17:10;;;;;;;6.13;4.80;;;16.60;1.00;;;;;;5053952;28;20782;-65
2023/10/13 10:19:54;;;;;;;7.60;4.97;;;16.60;1.00;;;;;;5053087;28;20409;-66
2023/10/13 10:22:39;;;;;;;6.33;5.37;;;16.70;1.00;;;;;;5052175;28;20957;-65
2023/10/13 10:25:25;;;;;;;9.00;5.50;;;16.60;1.00;;;;;;5051607;28;20437;-65
2023/10/13 10:27:58;;;;;;;5.90;5.40;;;16.60;1.00;;;;;;5051697;28;20522;-65
2023/10/13 10:30:28;;;;;;;5.83;5.20;;;16.60;1.00;;;;;;5053908;28;20397;-64
2023/10/13 10:33:06;;;;;;;7.40;5.63;;;16.60;1.00;;;;;;5053797;28;20948;-68
2023/10/13 10:35:32;;;;;;;12.30;5.70;;;16.60;1.00;;;;;;5050039;28;20929;-66
2023/10/13 10:38:34;;;;;;;6.63;6.03;;;16.60;1.00;;;;;;5032020;28;20430;-66
2023/10/13 10:41:04;;;;;;;6.60;6.00;;;16.50;1.00;;;;;;5032567;28;20475;-67
2023/10/13 10:43:41;;;;;;;6.50;5.80;;;16.60;1.00;;;;;;5032448;28;20854;-66
2023/10/13 10:46:16;;;;;;;6.20;5.70;;;16.60;1.00;;;;;;5031472;28;20430;-65
2023/10/13 10:48:44;;;;;;;12.53;6.73;;;16.60;1.00;;;;;;5033049;28;20732;-66
2023/10/13 10:51:21;;;;;;;9.93;6.67;;;16.70;1.00;;;;;;5033428;28;20399;-67
2023/10/13 10:53:51;;;;;;;7.17;6.47;;;16.70;1.00;;;;;;5033360;28;20531;-66
2023/10/13 10:59:04;;;;;;;8.30;7.17;;;16.80;1.00;;;;;;5033524;28;20398;-66
2023/10/13 11:01:38;;;;;;;9.97;6.40;;;16.70;1.00;;;;;;5033306;28;20406;-66
2023/10/13 11:04:08;;;;;;;7.33;5.90;;;16.80;1.00;;;;;;5033453;28;20398;-65
2023/10/13 11:06:45;;;;;;;8.67;7.50;;;16.80;1.00;;;;;;5032353;28;20917;-66
2023/10/13 11:11:57;;;;;;;8.03;7.00;;;16.90;1.00;;;;;;5035704;28;20460;-65
2023/10/13 11:14:28;;;;;;;11.80;7.50;;;16.90;1.00;;;;;;5034424;28;20410;-70
2023/10/13 11:17:18;;;;;;;8.23;7.07;;;17.00;1.00;;;;;;5032322;28;20536;-65
2023/10/13 11:19:44;;;;;;;9.33;7.70;;;17.10;1.00;;;;;;5033277;28;20752;-65
2023/10/13 11:22:29;;;;;;;8.20;7.33;;;17.20;1.00;;;;;;5044421;28;20513;-65
2023/10/13 11:24:59;;;;;;;15.33;8.20;;;17.30;1.00;;;;;;5032281;28;20175;-65
2023/10/13 11:27:44;;;;;;;8.43;6.20;;;17.40;1.00;;;;;;5034066;28;20528;-66
2023/10/13 11:30:15;;;;;;;9.00;6.93;;;17.50;1.00;;;;;;5041266;28;20771;-66
2023/10/13 11:32:43;;;;;;;9.33;6.87;;;17.60;1.00;;;;;;5044705;28;20933;-65
2023/10/13 11:35:21;;;;;;;10.63;7.17;;;17.60;1.00;;;;;;5048543;28;20483;-65
2023/10/13 11:38:13;;;;;;;9.00;7.20;;;17.70;1.00;;;;;;5039686;28;20433;-65
2023/10/13 11:40:59;;;;;;;14.93;7.50;;;17.60;1.00;;;;;;5048405;28;20429;-65
2023/10/13 11:43:26;;;;;;;13.53;7.10;;;17.60;1.00;;;;;;5043055;28;20512;-65
2023/10/13 11:48:36;;;;;;;11.87;7.20;;;17.50;99.90;;;;;;5041116;28;20438;-65
2023/10/13 11:51:24;;;;;;;12.23;6.83;;;17.50;99.90;;;;;;5043935;28;20414;-65
2023/10/13 11:53:53;;;;;;;7.23;6.50;;;17.50;99.90;;;;;;5044717;28;20416;-65
2023/10/13 11:56:23;;;;;;;17.33;7.37;;;17.50;99.90;;;;;;5046577;28;20453;-65
2023/10/13 11:58:49;;;;;;;14.97;7.27;;;17.50;99.90;;;;;;5033399;28;20462;-64
2023/10/13 12:09:41;;;;;;;9.63;8.17;;;17.70;99.90;;;;;;5046578;28;20921;-65
2023/10/13 12:12:05;;;;;;;16.37;7.67;;;17.70;99.90;;;;;;5036689;28;20449;-66
2023/10/13 12:14:37;;;;;;;11.27;7.00;;;17.70;99.90;;;;;;5036848;28;20858;-75
2023/10/13 12:17:11;;;;;;;16.47;7.10;;;17.70;99.90;;;;;;5036399;28;20195;-65
2023/10/13 12:19:38;;;;;;;11.33;6.67;;;17.70;99.90;;;;;;5042858;28;20820;-65
2023/10/13 12:22:08;;;;;;;11.57;7.47;;;17.80;99.90;;;;;;5041810;28;20410;-66
2023/10/13 12:27:14;;;;;;;13.40;7.10;;;17.80;99.90;;;;;;5055962;28;20980;-65
2023/10/13 12:29:46;;;;;;;10.90;7.70;;;17.90;99.90;;;;;;5056117;28;20496;-64
2023/10/13 12:32:12;;;;;;;13.77;8.73;;;17.90;99.90;;;;;;5043071;28;20992;-66
2023/10/13 12:34:57;;;;;;;13.00;7.67;;;18.00;99.90;;;;;;5054367;28;20415;-65
2023/10/13 12:51:20;;;;;;;12.43;7.10;;;19.30;99.90;;;;;;5036971;28;20413;-65
2023/10/13 12:53:48;;;;;;;11.40;7.13;;;19.20;99.90;;;;;;5035774;28;20937;-65
2023/10/13 12:56:14;;;;;;;9.53;6.67;;;19.00;99.90;;;;;;5047595;28;20453;-64
2023/10/13 12:58:40;;;;;;;16.40;8.27;;;18.90;99.90;;;;;;5034466;28;20814;-65
2023/10/13 13:01:08;;;;;;;10.70;7.50;;;18.90;99.90;;;;;;5035249;28;20421;-72
2023/10/13 13:03:34;;;;;;;12.83;9.10;;;18.80;99.90;;;;;;5053268;28;20171;-65
2023/10/13 13:06:07;;;;;;;8.13;7.40;;;19.10;99.90;;;;;;5054440;28;20483;-65
2023/10/13 13:08:44;;;;;;;18.33;7.50;;;19.60;99.90;;;;;;5055330;28;20548;-65
2023/10/13 13:11:10;;;;;;;14.33;7.20;;;20.10;99.90;;;;;;5054095;28;20401;-64
2023/10/13 13:13:36;;;;;;;9.60;5.57;;;20.70;99.90;;;;;;5041086;28;20970;-65
2023/10/13 13:16:03;;;;;;;17.47;6.33;;;20.90;99.90;;;;;;5035024;28;20537;-65
2023/10/13 13:18:29;;;;;;;9.93;5.70;;;20.80;97.50;;;;;;5034844;28;20251;-65
2023/10/13 13:20:55;;;;;;;12.03;6.10;;;20.60;56.10;;;;;;5045867;28;20842;-65
2023/10/13 13:23:25;;;;;;;12.33;6.70;;;20.30;19.80;;;;;;5055156;28;20177;-64
2023/10/13 13:25:51;;;;;;;8.80;5.67;;;20.10;1.00;;;;;;5054229;28;20433;-65
2023/10/13 13:28:17;;;;;;;16.63;7.53;;;19.90;1.00;;;;;;5053686;28;20817;-68
2023/10/13 13:30:44;;;;;;;8.77;6.87;;;19.90;1.00;;;;;;5051982;28;20431;-66
2023/10/13 13:33:10;;;;;;;10.63;6.03;;;19.90;1.00;;;;;;5043047;28;20516;-65
2023/10/13 13:35:42;;;;;;;13.10;5.30;;;19.90;1.00;;;;;;5033570;28;20391;-66
2023/10/13 13:38:29;;;;;;;10.43;5.60;;;19.90;1.00;;;;;;5033618;28;20790;-64
2023/10/13 13:40:54;;;;;;;10.63;5.60;;;19.90;1.00;;;;;;5034957;28;20413;-65
2023/10/13 13:46:09;;;;;;;12.53;6.33;;;20.10;1.00;;;;;;5054006;28;20265;-65
2023/10/13 13:48:36;;;;;;;11.20;6.60;;;20.00;1.00;;;;;;5054577;28;20527;-65
2023/10/13 13:51:14;;;;;;;14.67;6.70;;;20.00;1.00;;;;;;5054690;28;20900;-65
2023/10/13 13:53:44;;;;;;;11.70;7.13;;;20.00;1.00;;;;;;5054608;28;20402;-65
2023/10/13 13:56:10;;;;;;;12.10;5.53;;;20.00;1.00;;;;;;5052892;28;20425;-65
2023/10/13 13:58:38;;;;;;;8.93;6.43;;;20.00;1.00;;;;;;5043256;28;20926;-67
2023/10/13 14:01:14;;;;;;;10.93;6.10;;;20.00;1.00;;;;;;5047001;28;20436;-65
2023/10/13 14:03:46;;;;;;;7.53;4.70;;;19.90;1.00;;;;;;5052230;28;20432;-65
2023/10/13 14:06:28;;;;;;;10.63;4.97;;;20.00;1.00;;;;;;5053383;28;20449;-66
2023/10/13 14:08:56;;;;;;;10.20;5.20;;;20.00;1.00;;;;;;5052919;28;20441;-66
2023/10/13 14:14:13;;;;;;;15.63;6.33;;;19.90;99.90;;;;;;5054040;28;20433;-65
2023/10/13 14:16:47;;;;;;;8.13;5.63;;;20.00;99.90;;;;;;5052787;28;20532;-66
2023/10/13 14:19:26;;;;;;;12.63;6.30;;;19.90;99.90;;;;;;5043730;28;20438;-65
2023/10/13 14:21:59;;;;;;;13.00;6.13;;;19.90;99.90;;;;;;5051362;28;20464;-65
2023/10/13 14:24:33;;;;;;;10.13;5.00;;;19.90;99.90;;;;;;5040771;28;20426;-69
2023/10/13 14:27:08;;;;;;;9.77;5.70;;;19.90;99.90;;;;;;5036658;28;20473;-65
2023/10/13 14:29:39;;;;;;;15.60;4.90;;;19.90;99.90;;;;;;5046123;28;20489;-65
2023/10/13 14:32:13;;;;;;;15.47;5.70;;;19.80;99.90;;;;;;5053197;28;20439;-65
2023/10/13 14:34:53;;;;;;;11.70;5.23;;;19.80;99.90;;;;;;5043163;28;20410;-66
2023/10/13 14:37:30;;;;;;;9.60;5.27;;;19.80;99.90;;;;;;5032507;28;20528;-66
2023/10/13 14:39:57;;;;;;;7.00;4.70;;;19.70;99.90;;;;;;5032469;28;20436;-65
2023/10/13 14:42:27;;;;;;;14.73;5.57;;;19.60;99.90;;;;;;5032541;28;20834;-66
2023/10/13 14:44:56;;;;;;;9.23;5.63;;;19.50;99.90;;;;;;5032904;28;20442;-65
2023/10/13 14:47:25;;;;;;;13.30;6.50;;;19.30;99.90;;;;;;5033432;28;20469;-71
2023/10/13 14:49:54;;;;;;;12.43;5.70;;;19.10;99.90;;;;;;5033555;28;20469;-66
2023/10/13 14:52:23;;;;;;;13.77;5.90;;;19.00;99.90;;;;;;5045242;28;20440;-67
2023/10/13 14:54:54;;;;;;;11.93;6.57;;;19.00;99.90;;;;;;5052532;28;20401;-65
2023/10/13 14:57:24;;;;;;;17.47;7.73;;;18.90;99.90;;;;;;5052971;28;20790;-66
2023/10/13 14:59:54;;;;;;;9.97;6.60;;;18.80;99.90;;;;;;5053674;28;20750;-64
2023/10/13 15:02:20;;;;;;;11.93;7.37;;;18.70;99.90;;;;;;5051568;28;20506;-64
2023/10/13 15:04:49;;;;;;;10.80;6.23;;;18.60;1.00;;;;;;5052485;28;20432;-64
2023/10/13 15:07:17;;;;;;;13.13;6.30;;;18.50;1.00;;;;;;5052639;28;20635;-65
2023/10/13 15:09:43;;;;;;;10.60;6.00;;;18.50;1.00;;;;;;5053059;28;20734;-64
2023/10/13 15:12:10;;;;;;;14.50;7.40;;;18.50;1.00;;;;;;5053291;28;20398;-64
2023/10/13 15:14:42;;;;;;;11.90;6.80;;;18.50;1.00;;;;;;5052343;28;20397;-65
2023/10/13 15:17:15;;;;;;;14.83;7.03;;;18.50;1.00;;;;;;5052003;28;20891;-65
2023/10/13 15:19:42;;;;;;;18.10;6.93;;;18.40;1.00;;;;;;5053220;28;20397;-65
2023/10/13 15:22:16;;;;;;;13.03;7.47;;;18.40;1.00;;;;;;5053109;28;20437;-65
2023/10/13 15:24:57;;;;;;;14.40;7.47;;;18.40;1.00;;;;;;5052336;28;20906;-64
2023/10/13 15:27:23;;;;;;;18.57;8.10;;;18.40;1.00;;;;;;5048731;28;21178;-65
2023/10/13 15:29:50;;;;;;;14.23;8.57;;;18.40;1.00;;;;;;5035574;28;20464;-65
2023/10/13 15:35:00;;;;;;;9.70;7.20;;;18.30;1.00;;;;;;5053669;28;20492;-64
2023/10/13 15:37:27;;;;;;;14.93;7.87;;;18.30;1.00;;;;;;5057081;28;20520;-65
2023/10/13 15:39:53;;;;;;;12.47;8.13;;;18.20;1.00;;;;;;5057191;28;20167;-64
2023/10/13 15:42:20;;;;;;;10.27;7.00;;;18.20;1.00;;;;;;5054981;28;20431;-69
2023/10/13 15:44:48;;;;;;;11.23;8.93;;;18.20;1.00;;;;;;5055570;28;20174;-65
2023/10/13 15:47:14;;;;;;;14.37;8.37;;;18.20;1.00;;;;;;5056786;28;20457;-66
2023/10/13 15:49:42;;;;;;;14.40;9.33;;;18.20;1.00;;;;;;5056875;28;20409;-65
2023/10/13 15:52:09;;;;;;;17.30;8.30;;;18.10;1.00;;;;;;5056985;28;20166;-64
2023/10/13 15:54:35;;;;;;;15.00;8.23;;;18.10;1.00;;;;;;5056107;28;20816;-65
2023/10/13 15:57:01;;;;;;;10.13;7.40;;;18.10;1.00;;;;;;5054830;28;20511;-64
2023/10/13 15:59:27;;;;;;;13.30;8.50;;;18.10;1.00;;;;;;5056661;28;20175;-65
2023/10/13 16:01:57;;;;;;;13.60;9.27;;;18.10;1.00;;;;;;5056034;28;20401;-64
2023/10/13 16:04:23;;;;;;;13.80;8.30;;;18.10;1.00;;;;;;5056514;28;20181;-77
2023/10/13 16:06:51;;;;;;;13.33;10.23;;;18.10;6.00;;;;;;5055695;28;20965;-64
2023/10/13 16:09:22;;;;;;;18.33;8.63;;;18.10;15.40;;;;;;5056604;28;20394;-64
2023/10/13 16:11:52;;;;;;;12.90;7.90;;;18.20;14.30;;;;;;5047180;28;20430;-69
2023/10/13 16:14:18;;;;;;;12.70;8.90;;;18.20;16.10;;;;;;5054424;28;20425;-64
2023/10/13 16:16:49;;;;;;;10.50;6.70;;;18.20;16.60;;;;;;5053601;28;20519;-65
2023/10/13 16:19:17;;;;;;;17.03;9.00;;;18.30;10.20;;;;;;5056197;28;20410;-64
2023/10/13 16:21:45;;;;;;;11.70;8.20;;;18.30;5.20;;;;;;5056310;28;20406;-64
2023/10/13 16:24:11;;;;;;;15.83;8.70;;;18.30;1.00;;;;;;5056234;28;20401;-65
2023/10/13 16:26:40;;;;;;;19.93;8.60;;;18.30;1.00;;;;;;5055122;28;20778;-64
2023/10/13 16:29:07;;;;;;;17.00;8.90;;;18.30;1.00;;;;;;5042487;28;20433;-64
2023/10/13 16:31:33;;;;;;;23.93;9.53;;;18.30;1.00;;;;;;5035442;28;20422;-64
2023/10/13 16:34:02;;;;;;;14.63;7.23;;;18.30;2.10;;;;;;5046173;28;20421;-65
2023/10/13 16:36:30;;;;;;;13.03;6.87;;;18.30;5.50;;;;;;5054465;28;20551;-64
2023/10/13 16:38:57;;;;;;;14.70;10.13;;;18.30;7.20;;;;;;5054864;28;20409;-65
2023/10/13 16:41:24;;;;;;;15.07;8.90;;;18.30;11.80;;;;;;5056062;28;20385;-64
2023/10/13 16:43:50;;;;;;;13.77;7.87;;;18.20;17.30;;;;;;5055899;28;20408;-65
2023/10/13 16:46:17;;;;;;;12.87;8.50;;;18.20;18.60;;;;;;5051870;28;20532;-65